Nimbus Weather Services

Informe meteorológico para Carrasco, Uruguay. El informe se hizo hace 29 minutos, a las 11:00 UTC. El viento soplaba a una velocidad de 3.6 m/s (8.1 millas por hora) del norte (010°). La temperatura era 13 °C (55 °F), con un punto de rocío de 8 °C (46 °F). La presión atmosférica era 1019 hPa (30.09 inHg). Había una humedad relativa del 71.6%. Cielo: sin nubes por debajo de 1500 metros (5000 pies) y sin presencia de cumulusnimbos. En aquel momento la visibilidad global era mayor de 10 kilómetros (6.2 millas).

La clave METAR es: SUMU 251100Z 01007KT CAVOK 13/08 Q1019 NOSIG

Consulta realizada el Sábado 25 de Noviembre de 2017 8:29. Tiempo usado para generar esta pagina:554 ms.